Time;durP1;ratioP1;P1;durP2;ratioP2;P2;SDS_P1;SDS_P2;PMS_P1;PMS_P2;Temp;Humidity;BMP_temperature;BMP_pressure;BME280_temperature;BME280_humidity;BME280_pressure;Samples;Min_cycle;Max_cycle;Signal;HPM_P1;HPM_P2
2022/03/30 00:01:25;;;;;;;18.80;9.90;;;;;;;13.81;53.44;98967.78;5049243;28;20227;-61
2022/03/30 00:03:52;;;;;;;16.10;9.53;;;;;;;13.80;53.51;98960.91;5049959;28;20199;-61
2022/03/30 00:06:20;;;;;;;20.73;10.63;;;;;;;13.76;53.54;98962.63;5052817;28;20193;-61
2022/03/30 00:08:47;;;;;;;16.57;10.70;;;;;;;13.71;54.24;98953.19;5053491;28;20574;-60
2022/03/30 00:11:14;;;;;;;16.73;10.53;;;;;;;13.61;54.79;98954.97;5053620;28;20199;-60
2022/03/30 00:13:41;;;;;;;16.50;10.77;;;;;;;13.49;55.47;98953.28;5053105;28;20212;-60
2022/03/30 00:16:10;;;;;;;13.30;10.20;;;;;;;13.44;55.92;98960.19;5053497;28;20195;-60
2022/03/30 00:18:38;;;;;;;14.37;11.43;;;;;;;13.43;55.82;98952.47;5053388;28;20629;-60
2022/03/30 00:21:05;;;;;;;18.17;10.83;;;;;;;13.37;55.60;98960.25;5053144;28;20195;-60
2022/03/30 00:23:33;;;;;;;22.13;11.67;;;;;;;13.26;56.00;98955.13;5053061;28;20186;-60
2022/03/30 00:26:00;;;;;;;23.20;11.00;;;;;;;13.24;56.60;98964.56;5052940;28;20196;-59
2022/03/30 00:28:28;;;;;;;17.10;11.53;;;;;;;13.13;56.35;98968.06;5053096;28;20297;-60
2022/03/30 00:30:56;;;;;;;16.93;12.03;;;;;;;13.11;56.26;98962.88;5058092;28;20203;-59
2022/03/30 00:33:23;;;;;;;17.97;11.57;;;;;;;13.15;55.75;98966.31;5077703;28;20342;-60
2022/03/30 00:35:50;;;;;;;19.50;12.60;;;;;;;13.01;56.37;98948.28;5078866;28;20188;-61
2022/03/30 00:38:17;;;;;;;25.60;12.27;;;;;;;13.03;55.91;98957.72;5082406;28;20273;-61
2022/03/30 00:40:46;;;;;;;24.23;12.07;;;;;;;12.91;56.31;98949.16;5083278;28;20279;-61
2022/03/30 00:43:13;;;;;;;22.07;12.90;;;;;;;12.86;56.51;98941.41;5079387;28;20192;-61
2022/03/30 00:45:40;;;;;;;19.13;11.60;;;;;;;12.69;56.67;98952.63;5082260;28;20194;-61
2022/03/30 00:48:08;;;;;;;20.03;12.57;;;;;;;12.61;56.88;98947.47;5083385;28;20680;-61
2022/03/30 00:50:35;;;;;;;21.73;13.37;;;;;;;12.59;56.42;98953.47;5079128;28;20195;-60
2022/03/30 00:53:02;;;;;;;21.07;13.87;;;;;;;12.52;57.16;98944.91;5083160;28;20298;-60
2022/03/30 00:55:29;;;;;;;28.27;14.37;;;;;;;12.46;56.89;98952.63;5081288;28;20282;-61
2022/03/30 00:57:58;;;;;;;20.77;13.57;;;;;;;12.40;57.19;98945.75;5082645;28;20266;-61
2022/03/30 01:00:26;;;;;;;22.50;13.93;;;;;;;12.24;57.52;98948.34;5082967;28;20222;-61
2022/03/30 01:02:54;;;;;;;22.63;14.37;;;;;;;11.95;57.74;98927.69;5079675;28;20195;-61
2022/03/30 01:05:21;;;;;;;25.67;14.03;;;;;;;12.13;57.88;98947.47;5084286;28;20573;-61
2022/03/30 01:07:48;;;;;;;27.07;15.27;;;;;;;12.05;58.28;98942.31;5084057;28;20561;-61
2022/03/30 01:10:17;;;;;;;27.43;15.37;;;;;;;11.86;58.74;98940.56;5078907;28;20199;-61
2022/03/30 01:12:44;;;;;;;30.73;16.90;;;;;;;11.85;58.48;98938.81;5082180;28;20213;-61
2022/03/30 01:15:14;;;;;;;30.63;19.63;;;;;;;11.83;58.82;98946.56;5082295;28;20449;-60
2022/03/30 01:17:41;;;;;;;36.33;21.00;;;;;;;11.78;58.99;98935.38;5077933;28;20187;-58
2022/03/30 01:20:10;;;;;;;28.73;15.57;;;;;;;11.90;58.33;98941.41;5073604;28;20662;-58
2022/03/30 01:22:39;;;;;;;20.70;14.10;;;;;;;11.89;57.85;98938.00;5072322;28;20629;-58
2022/03/30 01:25:07;;;;;;;23.37;14.57;;;;;;;11.82;57.49;98942.25;5072307;28;20184;-58
2022/03/30 01:27:34;;;;;;;23.80;15.37;;;;;;;11.81;57.34;98943.09;5072117;28;20191;-58
2022/03/30 01:32:55;;;;;;;24.03;15.73;;;;;;;11.65;57.49;98937.88;5054845;28;20273;-58
2022/03/30 01:35:22;;;;;;;27.17;16.90;;;;;;;11.56;58.38;98943.00;5051707;28;20571;-58
2022/03/30 01:37:51;;;;;;;28.13;16.70;;;;;;;11.51;58.28;98947.28;5052001;28;20192;-58
2022/03/30 01:40:17;;;;;;;27.50;16.33;;;;;;;11.45;59.23;98950.69;5051646;28;20193;-58
2022/03/30 01:42:45;;;;;;;24.10;17.17;;;;;;;11.42;58.87;98949.81;5052585;28;20250;-58
2022/03/30 01:45:15;;;;;;;23.33;16.33;;;;;;;11.25;59.16;98954.88;5070237;28;20198;-58
2022/03/30 01:47:48;;;;;;;30.53;16.60;;;;;;;11.04;59.51;98924.78;5068794;28;20199;-58
2022/03/30 01:50:15;;;;;;;25.73;17.50;;;;;;;11.11;60.04;98965.09;5063978;28;20290;-58
2022/03/30 01:52:43;;;;;;;24.90;17.40;;;;;;;11.15;59.81;98961.69;5070674;28;20204;-58
2022/03/30 01:55:11;;;;;;;27.70;17.30;;;;;;;11.17;59.61;98949.72;5070497;28;20211;-58
2022/03/30 01:57:39;;;;;;;27.10;16.80;;;;;;;11.17;59.60;98952.28;5071055;28;20270;-58
2022/03/30 02:00:07;;;;;;;26.20;17.23;;;;;;;11.26;59.51;98956.63;5071170;28;20227;-58
2022/03/30 02:02:34;;;;;;;22.53;15.70;;;;;;;11.32;59.42;98963.50;5070811;28;20245;-59
2022/03/30 02:05:01;;;;;;;26.90;16.80;;;;;;;11.35;59.64;98954.06;5071193;28;20187;-58
2022/03/30 02:07:28;;;;;;;28.50;16.57;;;;;;;11.33;59.74;98962.63;5072420;28;20283;-57
2022/03/30 02:09:55;;;;;;;30.10;17.10;;;;;;;11.33;59.27;98960.06;5069428;28;20224;-58
2022/03/30 02:12:23;;;;;;;27.47;15.63;;;;;;;11.07;59.77;98947.94;5050905;28;20192;-58
2022/03/30 02:14:53;;;;;;;23.37;16.40;;;;;;;11.13;59.92;98963.38;5060517;28;20215;-58
2022/03/30 02:17:20;;;;;;;31.10;17.50;;;;;;;11.14;59.76;98959.97;5068419;28;20188;-57
2022/03/30 02:19:50;;;;;;;22.17;17.13;;;;;;;11.11;60.46;98959.09;5069396;28;20192;-58
2022/03/30 02:22:17;;;;;;;28.27;18.13;;;;;;;10.98;60.70;98965.03;5074831;28;20184;-57
2022/03/30 02:24:44;;;;;;;28.03;18.40;;;;;;;10.89;60.88;98962.38;5077818;28;20221;-58
2022/03/30 02:27:11;;;;;;;28.87;17.80;;;;;;;10.81;61.03;98959.78;5070173;28;20306;-57
2022/03/30 02:29:39;;;;;;;22.90;16.67;;;;;;;10.83;61.30;98964.91;5070539;28;20202;-57
2022/03/30 02:32:07;;;;;;;23.30;16.07;;;;;;;10.79;61.03;98970.91;5070657;28;20227;-57
2022/03/30 02:34:34;;;;;;;21.43;16.33;;;;;;;10.66;61.39;98969.94;5070464;28;20227;-57
2022/03/30 02:37:01;;;;;;;27.90;17.33;;;;;;;10.62;61.36;98969.06;5070467;28;20202;-57
2022/03/30 02:39:28;;;;;;;27.90;18.50;;;;;;;10.63;61.50;98972.47;5070329;28;20195;-57
2022/03/30 02:41:55;;;;;;;29.17;18.70;;;;;;;10.62;61.54;98970.78;5070565;28;20191;-57
2022/03/30 02:44:22;;;;;;;21.23;17.83;;;;;;;10.50;62.27;98971.53;5070364;28;20188;-58
2022/03/30 02:46:51;;;;;;;24.73;17.17;;;;;;;10.58;62.39;98977.59;5070414;28;20567;-58
2022/03/30 02:49:18;;;;;;;32.83;19.07;;;;;;;10.51;62.42;98974.97;5070234;28;20202;-58
2022/03/30 02:51:45;;;;;;;30.93;18.60;;;;;;;10.48;62.43;98969.81;5070801;28;20281;-58
2022/03/30 02:54:12;;;;;;;23.93;17.47;;;;;;;10.55;62.92;98971.56;5070488;28;20223;-57
2022/03/30 02:56:39;;;;;;;24.77;17.23;;;;;;;10.52;62.82;98966.41;5069673;28;20205;-57
2022/03/30 02:59:06;;;;;;;23.33;18.17;;;;;;;10.60;62.83;98972.47;5069577;28;20197;-58
2022/03/30 03:01:33;;;;;;;29.60;18.17;;;;;;;10.47;63.87;98961.22;5069709;28;20196;-57
2022/03/30 03:04:02;;;;;;;27.23;17.73;;;;;;;10.44;63.61;98958.63;5069959;28;20203;-58
2022/03/30 03:06:29;;;;;;;27.70;19.13;;;;;;;10.29;64.74;98963.66;5070297;28;20253;-58
2022/03/30 03:08:57;;;;;;;32.53;19.73;;;;;;;10.24;64.55;98960.19;5070279;28;20191;-57
2022/03/30 03:11:23;;;;;;;25.03;18.80;;;;;;;10.33;64.63;98964.56;5071245;28;20199;-57
2022/03/30 03:13:50;;;;;;;28.40;18.83;;;;;;;10.21;65.21;98973.00;5070134;28;20211;-58
2022/03/30 03:16:18;;;;;;;28.97;18.80;;;;;;;10.31;64.79;98968.78;5068173;28;20196;-57
2022/03/30 03:18:45;;;;;;;26.67;17.30;;;;;;;10.33;64.62;98973.09;5069697;28;20312;-57
2022/03/30 03:21:13;;;;;;;36.43;19.83;;;;;;;10.41;64.58;98976.59;5078008;28;20192;-58
2022/03/30 03:23:41;;;;;;;26.97;18.90;;;;;;;10.40;64.94;98976.59;5078508;28;20199;-57
2022/03/30 03:26:08;;;;;;;26.53;19.40;;;;;;;10.44;64.41;98965.47;5077675;28;20192;-58
2022/03/30 03:28:34;;;;;;;25.07;17.63;;;;;;;10.50;64.34;98962.97;5069955;28;20187;-58
2022/03/30 03:31:01;;;;;;;29.52;20.73;;;;;;;10.55;64.17;98966.41;5069367;28;20438;-57
2022/03/30 03:33:28;;;;;;;27.60;19.83;;;;;;;10.63;63.76;98965.63;5069073;28;20196;-58
2022/03/30 03:35:55;;;;;;;30.23;21.63;;;;;;;10.65;64.06;98969.09;5078549;28;20206;-57
2022/03/30 03:38:23;;;;;;;34.27;23.23;;;;;;;10.61;63.92;98967.34;5080299;28;20187;-58
2022/03/30 03:40:50;;;;;;;32.70;22.53;;;;;;;10.38;63.69;98963.72;5077519;28;20258;-57
2022/03/30 03:43:17;;;;;;;32.77;21.67;;;;;;;10.31;63.99;98974.78;5073807;28;20286;-58
2022/03/30 03:45:44;;;;;;;36.13;22.07;;;;;;;10.17;64.17;98972.94;5072920;28;20575;-57
2022/03/30 03:48:11;;;;;;;29.33;19.13;;;;;;;10.15;64.08;98974.63;5078963;28;20192;-57
2022/03/30 03:50:38;;;;;;;35.97;22.20;;;;;;;10.09;63.62;98975.41;5081673;28;20194;-58
2022/03/30 03:53:05;;;;;;;29.87;22.73;;;;;;;10.00;64.02;98985.56;5082941;28;20727;-57
2022/03/30 03:55:36;;;;;;;29.03;22.33;;;;;;;9.87;64.17;98986.28;5083805;28;20211;-58
2022/03/30 03:58:05;;;;;;;30.80;22.50;;;;;;;9.43;64.53;98965.25;5073508;28;20195;-58
2022/03/30 04:00:33;;;;;;;32.50;23.30;;;;;;;9.58;64.48;98980.84;5077239;28;20215;-58
2022/03/30 04:03:00;;;;;;;28.57;21.83;;;;;;;9.53;64.25;98979.06;5077765;28;20284;-58
2022/03/30 04:05:28;;;;;;;35.70;22.73;;;;;;;9.51;64.57;98981.59;5072929;28;20190;-58
2022/03/30 04:07:55;;;;;;;34.03;22.87;;;;;;;9.56;64.37;98979.94;5073763;28;20219;-58
2022/03/30 04:10:21;;;;;;;31.33;23.40;;;;;;;9.66;64.19;98980.94;5073517;28;20186;-58
2022/03/30 04:12:50;;;;;;;33.60;20.97;;;;;;;9.70;64.53;98982.66;5073216;28;20186;-58
2022/03/30 04:15:17;;;;;;;29.17;18.93;;;;;;;9.73;64.21;98977.59;5073147;28;20708;-58
2022/03/30 04:17:45;;;;;;;28.77;21.37;;;;;;;9.89;63.64;98975.19;5073532;28;20594;-58
2022/03/30 04:20:13;;;;;;;35.47;21.93;;;;;;;9.95;63.50;98975.25;5073141;28;20196;-58
2022/03/30 04:22:40;;;;;;;38.07;23.03;;;;;;;10.00;63.11;98970.16;5073376;28;20214;-58
2022/03/30 04:25:08;;;;;;;30.43;20.47;;;;;;;10.06;63.18;98981.38;5073212;28;20728;-58
2022/03/30 04:27:35;;;;;;;32.10;21.73;;;;;;;10.14;63.00;98985.72;5072105;28;20302;-58
2022/03/30 04:30:04;;;;;;;33.20;21.37;;;;;;;10.23;62.74;98983.25;5075128;28;20278;-58
2022/03/30 04:32:31;;;;;;;35.37;19.20;;;;;;;10.33;62.48;98978.22;5079267;28;20190;-60
2022/03/30 04:34:58;;;;;;;36.73;21.43;;;;;;;10.34;62.28;98976.53;5084323;28;20217;-60
2022/03/30 04:37:25;;;;;;;34.13;21.23;;;;;;;10.38;62.23;98991.13;5081675;28;20682;-60
2022/03/30 04:39:52;;;;;;;35.17;22.77;;;;;;;10.49;62.24;98995.47;5083239;28;20190;-60
2022/03/30 04:42:20;;;;;;;35.60;22.67;;;;;;;10.61;62.22;98998.16;5076384;28;20206;-60
2022/03/30 04:44:47;;;;;;;30.20;23.40;;;;;;;10.67;61.63;98992.22;5080327;28;20191;-59
2022/03/30 04:47:16;;;;;;;40.63;27.37;;;;;;;10.70;61.69;98992.25;5081696;28;20190;-60
2022/03/30 04:49:43;;;;;;;42.33;29.20;;;;;;;10.77;61.16;98995.72;5076438;28;20206;-60
2022/03/30 04:52:10;;;;;;;44.97;32.87;;;;;;;10.71;61.14;98991.41;5080750;28;20195;-59
2022/03/30 04:54:37;;;;;;;47.87;29.60;;;;;;;10.63;61.26;98980.19;5079441;28;20953;-59
2022/03/30 04:57:05;;;;;;;48.97;29.63;;;;;;;10.65;61.19;98999.06;5072327;28;20195;-58
2022/03/30 04:59:32;;;;;;;45.53;29.50;;;;;;;10.57;61.04;99000.69;5072670;28;20231;-59
2022/03/30 05:01:59;;;;;;;50.43;30.13;;;;;;;10.50;61.04;98996.34;5072599;28;20194;-60
2022/03/30 05:04:29;;;;;;;50.27;29.07;;;;;;;10.41;61.66;98988.59;5072788;28;20302;-59
2022/03/30 05:06:56;;;;;;;57.20;29.67;;;;;;;10.36;61.73;98998.78;5072481;28;20202;-60
2022/03/30 05:09:23;;;;;;;44.53;30.37;;;;;;;10.40;61.63;98997.13;5072465;28;20677;-60
2022/03/30 05:11:50;;;;;;;48.07;30.07;;;;;;;10.44;61.49;98998.84;5072415;28;20554;-59
2022/03/30 05:14:17;;;;;;;47.80;29.57;;;;;;;10.34;61.63;99002.19;5072295;28;20260;-59
2022/03/30 05:16:44;;;;;;;34.80;26.10;;;;;;;10.39;61.75;98996.25;5072344;28;20222;-60
2022/03/30 05:19:11;;;;;;;42.90;26.27;;;;;;;10.51;61.08;99000.66;5071939;28;20187;-61
2022/03/30 05:21:39;;;;;;;43.43;25.77;;;;;;;10.56;61.04;99006.69;5071663;28;20287;-60
2022/03/30 05:24:07;;;;;;;38.23;27.33;;;;;;;10.62;60.84;99009.31;5071430;28;20672;-60
2022/03/30 05:26:34;;;;;;;53.67;30.80;;;;;;;10.54;60.99;99004.13;5071774;28;20213;-60
2022/03/30 05:29:01;;;;;;;49.07;31.67;;;;;;;10.65;60.82;99006.75;5071893;28;20194;-60
2022/03/30 05:31:28;;;;;;;47.67;29.90;;;;;;;10.77;60.39;99011.97;5072037;28;20555;-61
2022/03/30 05:33:55;;;;;;;64.97;30.83;;;;;;;10.84;59.73;99006.06;5071633;28;20226;-60
2022/03/30 05:36:22;;;;;;;65.67;31.07;;;;;;;10.86;59.76;99004.34;5075314;28;20211;-60
2022/03/30 05:38:50;;;;;;;52.37;28.63;;;;;;;10.90;60.02;99006.09;5072670;28;20195;-60
2022/03/30 05:41:18;;;;;;;65.88;31.35;;;;;;;10.95;59.50;99016.41;5071214;28;20433;-60
2022/03/30 05:43:45;;;;;;;51.50;28.90;;;;;;;10.94;59.91;99012.97;5070997;28;20195;-61
2022/03/30 05:46:12;;;;;;;52.07;29.00;;;;;;;11.00;59.67;99017.28;5070939;28;20191;-61
2022/03/30 05:48:39;;;;;;;54.33;29.77;;;;;;;11.06;59.80;99014.75;5070426;28;20198;-61
2022/03/30 05:51:06;;;;;;;50.60;30.07;;;;;;;11.14;59.76;99016.53;5070575;28;20195;-60
2022/03/30 05:53:34;;;;;;;61.33;32.23;;;;;;;11.20;59.21;99018.28;5071340;28;20187;-60
2022/03/30 05:56:02;;;;;;;64.43;32.33;;;;;;;11.24;59.07;99017.44;5071022;28;20250;-60
2022/03/30 05:58:29;;;;;;;54.70;29.00;;;;;;;11.25;58.67;99004.59;5069611;28;20282;-60
2022/03/30 06:00:56;;;;;;;64.00;29.63;;;;;;;11.18;59.04;99017.41;5068542;28;20334;-60
2022/03/30 06:03:23;;;;;;;64.20;32.40;;;;;;;11.20;58.80;99011.44;5067944;28;20246;-60
2022/03/30 06:05:51;;;;;;;52.13;32.43;;;;;;;11.24;58.87;99018.31;5068587;28;20199;-57
2022/03/30 06:08:18;;;;;;;61.27;32.93;;;;;;;11.24;59.06;99008.03;5068680;28;20196;-58
2022/03/30 06:10:45;;;;;;;66.30;33.43;;;;;;;11.14;59.03;98975.41;5068836;28;20198;-57
2022/03/30 06:13:13;;;;;;;73.43;34.53;;;;;;;11.37;58.54;98997.81;5068674;28;20869;-57
2022/03/30 06:15:40;;;;;;;56.03;30.83;;;;;;;11.48;58.00;98991.00;5070396;28;20665;-57
2022/03/30 06:18:10;;;;;;;58.07;29.03;;;;;;;11.62;58.15;98999.66;5070444;28;20187;-57
2022/03/30 06:20:39;;;;;;;67.80;32.10;;;;;;;11.84;57.65;98996.28;5070745;28;20194;-57
2022/03/30 06:23:06;;;;;;;63.73;27.77;;;;;;;11.99;57.36;98992.91;5070526;28;20261;-58
2022/03/30 06:25:33;;;;;;;58.45;31.23;;;;;;;12.15;57.13;99003.25;5070023;28;20430;-58
2022/03/30 06:28:00;;;;;;;52.97;27.47;;;;;;;12.37;56.05;99002.44;5070113;28;20261;-58
2022/03/30 06:30:29;;;;;;;56.67;26.40;;;;;;;12.50;56.09;98997.31;5070223;28;20198;-58
2022/03/30 06:32:57;;;;;;;46.40;26.30;;;;;;;12.69;55.45;99005.00;5070356;28;20478;-57
2022/03/30 06:35:25;;;;;;;44.97;26.23;;;;;;;12.88;54.60;99011.03;5070563;28;20306;-58
2022/03/30 06:37:52;;;;;;;41.53;25.83;;;;;;;13.01;54.45;99013.59;5070497;28;20610;-57
2022/03/30 06:40:19;;;;;;;44.13;25.43;;;;;;;13.17;54.02;99013.59;5070313;28;20210;-58
2022/03/30 06:42:48;;;;;;;44.20;24.40;;;;;;;13.19;53.63;99012.72;5070157;28;20202;-58
2022/03/30 06:45:15;;;;;;;43.50;23.47;;;;;;;13.15;53.28;99011.03;5069970;28;20238;-57
2022/03/30 06:47:44;;;;;;;47.80;25.00;;;;;;;13.27;53.56;99015.28;5070256;28;20196;-57
2022/03/30 06:50:13;;;;;;;43.50;24.03;;;;;;;13.32;52.92;99023.91;5069979;28;20195;-57
2022/03/30 06:52:41;;;;;;;42.80;23.53;;;;;;;13.36;53.01;99034.19;5069807;28;20192;-58
2022/03/30 06:55:09;;;;;;;47.53;25.17;;;;;;;13.48;52.56;99023.00;5069896;28;20191;-58
2022/03/30 06:57:36;;;;;;;48.38;26.48;;;;;;;13.62;52.43;99021.22;5068928;28;20446;-58
2022/03/30 07:00:04;;;;;;;45.87;26.90;;;;;;;13.76;52.10;99027.19;5069748;28;20270;-57
2022/03/30 07:02:31;;;;;;;40.60;26.13;;;;;;;13.86;51.89;99031.47;5069908;28;20291;-57
2022/03/30 07:04:59;;;;;;;46.30;26.80;;;;;;;13.99;51.07;99033.09;5069556;28;20193;-57
2022/03/30 07:10:16;;;;;;;52.77;30.53;;;;;;;13.95;50.87;99035.72;5069486;28;20194;-58
2022/03/30 07:12:45;;;;;;;43.53;27.53;;;;;;;13.87;51.58;99038.31;5069736;28;20191;-57
2022/03/30 07:15:12;;;;;;;44.80;29.57;;;;;;;13.86;51.00;99035.75;5068895;28;20578;-57
2022/03/30 07:17:49;;;;;;;49.20;30.77;;;;;;;13.90;51.33;99022.81;5069925;28;20203;-57
2022/03/30 07:20:18;;;;;;;45.63;29.00;;;;;;;14.11;51.25;99029.63;5069722;28;20198;-57
2022/03/30 07:22:47;;;;;;;41.63;29.23;;;;;;;14.29;50.74;99031.22;5069385;28;20218;-57
2022/03/30 07:25:15;;;;;;;44.80;28.37;;;;;;;14.48;50.68;99023.38;5069442;28;20188;-57
2022/03/30 07:27:44;;;;;;;45.40;28.97;;;;;;;14.55;50.24;99025.06;5069424;28;20279;-57
2022/03/30 07:30:12;;;;;;;33.80;22.87;;;;;;;14.57;50.03;99025.03;5069602;28;20207;-57
2022/03/30 07:32:41;;;;;;;35.03;23.93;;;;;;;14.69;49.34;99028.41;5069535;28;20271;-57
2022/03/30 07:35:09;;;;;;;31.00;22.47;;;;;;;14.84;49.21;99024.81;5069377;28;20582;-61
2022/03/30 07:37:39;;;;;;;33.30;20.37;;;;;;;14.89;49.12;99020.47;5069504;28;20619;-57
2022/03/30 07:40:08;;;;;;;31.87;19.53;;;;;;;14.98;49.03;99022.09;5069612;28;20678;-57
2022/03/30 07:42:35;;;;;;;29.73;21.48;;;;;;;15.06;48.49;99028.06;5068827;28;20448;-58
2022/03/30 07:45:03;;;;;;;31.33;20.03;;;;;;;15.19;47.99;99025.34;5069728;28;20278;-58
2022/03/30 07:47:31;;;;;;;26.70;19.47;;;;;;;15.35;47.82;99026.06;5069849;28;21042;-58
2022/03/30 07:49:58;;;;;;;26.03;18.70;;;;;;;15.43;47.28;99026.84;5069776;28;20274;-57
2022/03/30 07:52:25;;;;;;;29.20;20.30;;;;;;;15.48;46.80;99019.91;5069815;28;20200;-58
2022/03/30 07:54:54;;;;;;;38.40;19.67;;;;;;;15.64;46.73;99008.50;5069564;28;20214;-58
2022/03/30 07:57:26;;;;;;;25.67;19.07;;;;;;;15.92;46.11;99024.56;5069149;28;20249;-58
2022/03/30 07:59:53;;;;;;;24.80;18.40;;;;;;;16.13;45.59;99028.59;5069297;28;20228;-58
2022/03/30 08:02:20;;;;;;;26.27;19.60;;;;;;;16.23;44.16;99027.63;5069420;28;20180;-58
2022/03/30 08:04:47;;;;;;;30.60;19.90;;;;;;;16.20;44.16;99030.25;5069307;28;20215;-57
2022/03/30 08:07:15;;;;;;;25.87;18.80;;;;;;;16.17;44.05;99031.16;5068943;28;20695;-58
2022/03/30 08:09:42;;;;;;;27.50;18.97;;;;;;;16.32;44.16;99019.69;5069291;28;20192;-58
2022/03/30 08:12:14;;;;;;;26.30;19.33;;;;;;;16.52;43.47;99002.09;5069229;28;20195;-58
2022/03/30 08:14:42;;;;;;;26.60;18.50;;;;;;;16.67;43.45;98991.53;5069080;28;20260;-57
2022/03/30 08:17:09;;;;;;;24.47;18.07;;;;;;;16.83;43.63;98998.19;5068956;28;20223;-57
2022/03/30 08:19:36;;;;;;;22.70;17.70;;;;;;;16.97;43.30;98990.16;5069085;28;20201;-57
2022/03/30 08:24:48;;;;;;;21.77;17.00;;;;;;;17.19;43.04;98996.69;5068860;28;20198;-57
2022/03/30 08:27:18;;;;;;;25.90;17.40;;;;;;;17.40;42.96;99005.78;5071829;28;20278;-57
2022/03/30 08:29:45;;;;;;;24.83;16.80;;;;;;;17.50;42.71;99004.72;5072595;28;20270;-57
2022/03/30 08:32:13;;;;;;;24.10;16.00;;;;;;;17.48;43.04;98999.56;5072604;28;20257;-58
2022/03/30 08:34:40;;;;;;;28.63;17.07;;;;;;;17.37;42.78;98998.06;5072489;28;20285;-58
2022/03/30 08:37:08;;;;;;;22.53;16.57;;;;;;;17.57;42.63;98996.84;5072116;28;20226;-58
2022/03/30 08:39:35;;;;;;;26.17;16.90;;;;;;;17.79;42.11;98993.78;5071848;28;20191;-58
2022/03/30 08:42:03;;;;;;;23.57;15.43;;;;;;;17.93;41.42;98996.97;5072228;28;20218;-57
2022/03/30 08:44:33;;;;;;;32.13;16.40;;;;;;;18.04;41.54;98992.38;5072878;28;20191;-58
2022/03/30 08:47:00;;;;;;;26.00;16.60;;;;;;;18.28;41.23;98984.91;5072373;28;20286;-57
2022/03/30 08:49:33;;;;;;;26.73;16.53;;;;;;;18.48;40.40;98974.06;5072343;28;20191;-58
2022/03/30 08:52:01;;;;;;;26.67;16.57;;;;;;;18.69;39.18;98976.13;5072128;28;20273;-58
2022/03/30 08:54:28;;;;;;;24.93;16.87;;;;;;;18.50;39.88;98974.88;5072016;28;20282;-58
2022/03/30 08:56:55;;;;;;;24.67;16.10;;;;;;;18.40;40.08;98980.31;5071868;28;20235;-57
2022/03/30 08:59:24;;;;;;;24.57;16.30;;;;;;;18.40;40.49;98964.69;5071802;28;20199;-59
2022/03/30 09:01:55;;;;;;;25.23;16.53;;;;;;;18.46;40.29;98965.38;5072254;28;20206;-58
2022/03/30 09:04:22;;;;;;;22.53;17.37;;;;;;;18.51;40.46;98954.91;5071942;28;20257;-58
2022/03/30 09:06:50;;;;;;;21.03;15.73;;;;;;;18.70;40.13;98948.38;5071816;28;20196;-58
2022/03/30 09:09:28;;;;;;;19.80;16.63;;;;;;;18.86;39.59;98947.09;5071826;28;20223;-57
2022/03/30 09:11:55;;;;;;;22.47;15.40;;;;;;;18.82;38.70;98911.59;5071940;28;20274;-57
2022/03/30 09:14:25;;;;;;;21.23;14.93;;;;;;;19.09;38.90;98938.69;5072228;28;20605;-58
2022/03/30 09:16:55;;;;;;;28.63;15.63;;;;;;;19.19;38.60;98927.09;5071740;28;20360;-58
2022/03/30 09:19:23;;;;;;;22.73;15.93;;;;;;;19.22;38.92;98937.44;5071842;28;20238;-58
2022/03/30 09:21:52;;;;;;;23.70;14.60;;;;;;;19.18;38.06;98918.44;5071683;28;20191;-58
2022/03/30 09:24:21;;;;;;;23.02;14.85;;;;;;;19.35;37.72;98931.84;5070442;28;20438;-58
2022/03/30 09:26:48;;;;;;;26.27;14.47;;;;;;;19.43;37.19;98919.50;5071761;28;20187;-58
2022/03/30 09:29:16;;;;;;;23.30;14.50;;;;;;;19.51;36.55;98921.00;5071506;28;20658;-58
2022/03/30 09:31:43;;;;;;;40.43;28.47;;;;;;;19.62;36.89;98908.50;5071636;28;20274;-57
2022/03/30 09:34:11;;;;;;;19.60;15.43;;;;;;;19.70;37.04;98890.91;5071633;28;20187;-58
2022/03/30 09:36:40;;;;;;;21.77;14.23;;;;;;;19.95;37.00;98895.31;5071325;28;20234;-58
2022/03/30 09:39:10;;;;;;;18.90;14.50;;;;;;;20.15;37.15;98899.91;5070493;28;20282;-58
2022/03/30 09:41:47;;;;;;;17.33;13.10;;;;;;;20.19;36.93;98892.84;5071759;28;20266;-58
2022/03/30 09:44:14;;;;;;;17.93;14.40;;;;;;;19.97;37.64;98890.03;5071165;28;20210;-57
2022/03/30 09:46:56;;;;;;;18.67;14.03;;;;;;;19.92;37.24;98871.09;5070903;28;20188;-57
2022/03/30 09:49:39;;;;;;;22.40;14.40;;;;;;;20.08;36.73;98876.69;5071019;28;20196;-57
2022/03/30 09:52:18;;;;;;;22.33;14.27;;;;;;;20.00;37.44;98859.53;5071304;28;20200;-57
2022/03/30 09:54:50;;;;;;;16.93;14.17;;;;;;;20.16;37.08;98859.88;5071024;28;20195;-57
2022/03/30 09:57:20;;;;;;;17.00;13.97;;;;;;;20.14;36.56;98861.69;5071123;28;20288;-57
2022/03/30 10:00:07;;;;;;;21.27;15.50;;;;;;;20.42;36.42;98867.75;5070897;28;20579;-57
2022/03/30 10:02:36;;;;;;;22.30;14.10;;;;;;;20.48;34.83;98859.72;5070811;28;20222;-58
2022/03/30 10:05:06;;;;;;;19.67;13.90;;;;;;;20.50;35.41;98844.84;5070806;28;20198;-58
2022/03/30 10:07:33;;;;;;;25.47;15.33;;;;;;;20.46;35.84;98811.91;5070646;28;20199;-58
2022/03/30 10:10:01;;;;;;;24.23;14.57;;;;;;;20.71;35.43;98838.00;5070344;28;20206;-57
2022/03/30 10:12:29;;;;;;;21.23;15.37;;;;;;;20.71;35.24;98838.00;5070394;28;20195;-58
2022/03/30 10:14:57;;;;;;;20.40;14.50;;;;;;;20.81;35.04;98841.16;5070422;28;20266;-58
2022/03/30 10:17:25;;;;;;;23.50;15.37;;;;;;;20.90;34.72;98838.25;5070347;28;20219;-58
2022/03/30 10:19:56;;;;;;;19.87;14.47;;;;;;;20.64;33.85;98835.69;5070311;28;20187;-58
2022/03/30 10:23:05;;;;;;;25.93;14.90;;;;;;;20.29;32.87;98835.16;5070471;28;20328;-58
2022/03/30 10:25:44;;;;;;;23.20;14.97;;;;;;;20.40;33.63;98835.63;5033171;28;20187;-58
2022/03/30 10:28:16;;;;;;;23.33;13.73;;;;;;;20.58;32.38;98849.78;5070724;28;20593;-58
2022/03/30 10:30:44;;;;;;;18.33;12.87;;;;;;;20.73;32.41;98851.91;5070122;28;20195;-58
2022/03/30 10:33:12;;;;;;;18.03;13.07;;;;;;;20.72;31.56;98857.16;5070087;28;20252;-57
2022/03/30 10:35:41;;;;;;;20.33;13.30;;;;;;;20.59;32.26;98839.31;5069756;28;20195;-58
2022/03/30 10:38:09;;;;;;;18.43;13.03;;;;;;;20.59;31.80;98833.25;5069918;28;20234;-59
2022/03/30 10:40:38;;;;;;;22.60;13.43;;;;;;;20.87;32.81;98835.72;5069938;28;20203;-57
2022/03/30 10:43:12;;;;;;;16.33;13.23;;;;;;;20.92;32.60;98824.22;5070000;28;20196;-58
2022/03/30 10:45:48;;;;;;;17.87;14.77;;;;;;;21.17;31.90;98821.59;5069961;28;20203;-57
2022/03/30 10:48:19;;;;;;;19.43;12.87;;;;;;;21.30;32.18;98815.00;5069674;28;20278;-58
2022/03/30 10:50:49;;;;;;;23.53;14.73;;;;;;;21.49;32.28;98822.97;5069562;28;20200;-58
2022/03/30 10:53:47;;;;;;;23.50;15.33;;;;;;;21.28;31.60;98813.34;5069781;28;20199;-59
2022/03/30 10:56:36;;;;;;;24.87;14.83;;;;;;;21.02;31.74;98804.69;5035651;28;20224;-58
2022/03/30 10:59:17;;;;;;;18.80;13.83;;;;;;;20.98;31.83;98794.41;5069987;28;20287;-58
2022/03/30 11:01:46;;;;;;;16.47;14.20;;;;;;;21.00;31.73;98782.13;5069890;28;20199;-58
2022/03/30 11:04:27;;;;;;;24.30;13.90;;;;;;;21.16;32.14;98778.06;5069955;28;20864;-60
2022/03/30 11:07:39;;;;;;;24.00;14.47;;;;;;;21.44;31.63;98775.25;5069666;28;20296;-57
2022/03/30 11:10:27;;;;;;;16.17;12.93;;;;;;;21.65;31.17;98769.16;5069956;28;20195;-59
2022/03/30 11:13:02;;;;;;;17.87;13.20;;;;;;;21.54;30.87;98737.38;5069704;28;20183;-58
2022/03/30 11:15:29;;;;;;;16.73;12.87;;;;;;;21.50;30.97;98756.72;5069593;28;20193;-59
2022/03/30 11:18:17;;;;;;;15.73;12.93;;;;;;;21.35;31.14;98747.72;5069462;28;20215;-59
2022/03/30 11:21:17;;;;;;;19.03;13.67;;;;;;;21.44;30.45;98749.97;5069652;28;20196;-58
2022/03/30 11:24:19;;;;;;;21.07;15.10;;;;;;;21.54;30.46;98748.69;5069456;28;20191;-58
2022/03/30 11:27:22;;;;;;;15.40;13.33;;;;;;;21.67;30.30;98728.16;5059074;28;20274;-59
2022/03/30 11:30:13;;;;;;;20.47;13.83;;;;;;;21.82;30.09;98722.28;5069174;28;20650;-58
2022/03/30 11:32:45;;;;;;;18.57;14.07;;;;;;;22.10;29.75;98708.91;5065413;28;20191;-58
2022/03/30 11:35:17;;;;;;;18.70;13.77;;;;;;;22.07;29.34;98711.66;5069319;28;20520;-58